Time;durP1;ratioP1;P1;durP2;ratioP2;P2;SDS_P1;SDS_P2;PMS_P1;PMS_P2;Temp;Humidity;BMP_temperature;BMP_pressure;BME280_temperature;BME280_humidity;BME280_pressure;Samples;Min_cycle;Max_cycle;Signal;HPM_P1;HPM_P2
2023/07/29 00:02:19;;;;;;;;;;;17.80;99.90;;;;;;4996112;28;19956;-89
2023/07/29 00:04:46;;;;;;;;;;;17.80;99.90;;;;;;5004788;28;19941;-90
2023/07/29 00:07:12;;;;;;;;;;;17.80;99.90;;;;;;5004306;28;19953;-89
2023/07/29 00:09:39;;;;;;;;;;;17.80;99.90;;;;;;4985532;28;20120;-89
2023/07/29 00:12:06;;;;;;;;;;;17.70;99.90;;;;;;4985565;28;19929;-90
2023/07/29 00:14:34;;;;;;;;;;;17.80;99.90;;;;;;4985310;28;19922;-88
2023/07/29 00:17:01;;;;;;;;;;;17.80;99.90;;;;;;4985252;28;19993;-90
2023/07/29 00:19:28;;;;;;;;;;;17.70;99.90;;;;;;4984730;28;19994;-90
2023/07/29 00:21:55;;;;;;;;;;;17.80;99.90;;;;;;4985081;28;20161;-89
2023/07/29 00:24:21;;;;;;;;;;;17.80;99.90;;;;;;4989893;28;19922;-88
2023/07/29 00:26:48;;;;;;;;;;;17.70;99.90;;;;;;5004799;28;19922;-89
2023/07/29 00:29:15;;;;;;;;;;;17.80;99.90;;;;;;5004115;28;19945;-88
2023/07/29 00:31:43;;;;;;;;;;;17.70;99.90;;;;;;5000977;28;19954;-89
2023/07/29 00:34:10;;;;;;;;;;;17.70;99.90;;;;;;4985248;28;19929;-89
2023/07/29 00:36:36;;;;;;;;;;;17.70;99.90;;;;;;4985125;28;19989;-89
2023/07/29 00:39:03;;;;;;;;;;;17.70;99.90;;;;;;4985458;28;19922;-86
2023/07/29 00:41:30;;;;;;;;;;;17.70;99.90;;;;;;4988550;28;20009;-89
2023/07/29 00:43:56;;;;;;;;;;;17.60;99.90;;;;;;4989123;28;19925;-89
2023/07/29 00:46:23;;;;;;;;;;;17.60;99.90;;;;;;4989104;28;19985;-88
2023/07/29 00:48:52;;;;;;;;;;;17.60;99.90;;;;;;4989117;28;19946;-88
2023/07/29 00:51:18;;;;;;;;;;;17.60;99.90;;;;;;4988462;28;19964;-90
2023/07/29 00:53:45;;;;;;;;;;;17.60;99.90;;;;;;4989095;28;19942;-89
2023/07/29 00:56:12;;;;;;;;;;;17.50;99.90;;;;;;4989965;28;19993;-88
2023/07/29 00:58:38;;;;;;;;;;;17.50;99.90;;;;;;4989921;28;19922;-89
2023/07/29 01:01:05;;;;;;;;;;;17.50;99.90;;;;;;4996232;28;19944;-88
2023/07/29 01:03:32;;;;;;;;;;;17.50;99.90;;;;;;5008621;28;19941;-88
2023/07/29 01:06:07;;;;;;;;;;;17.40;99.90;;;;;;5008772;28;19985;-88
2023/07/29 01:08:38;;;;;;;;;;;17.40;99.90;;;;;;5008770;28;19964;-88
2023/07/29 01:11:13;;;;;;;;;;;17.40;99.90;;;;;;5008181;28;19945;-88
2023/07/29 01:13:44;;;;;;;;;;;17.30;99.90;;;;;;4989337;28;19934;-89
2023/07/29 01:16:15;;;;;;;;;;;17.30;99.90;;;;;;4989109;28;19975;-90
2023/07/29 01:18:43;;;;;;;;;;;17.30;99.90;;;;;;4994567;28;19929;-88
2023/07/29 01:21:12;;;;;;;;;;;17.30;99.90;;;;;;5009117;28;19964;-88
2023/07/29 01:23:40;;;;;;;;;;;17.30;99.90;;;;;;5008812;28;19993;-88
2023/07/29 01:26:06;;;;;;;;;;;17.30;99.90;;;;;;5008568;28;19922;-87
2023/07/29 01:28:33;;;;;;;;;;;17.30;99.90;;;;;;5010746;28;20189;-92
2023/07/29 01:31:02;;;;;;;;;;;17.30;99.90;;;;;;5001514;28;19953;-88
2023/07/29 01:33:33;;;;;;;;;;;17.30;99.90;;;;;;5009182;28;19922;-90
2023/07/29 01:36:06;;;;;;;;;;;17.30;99.90;;;;;;5011462;28;19957;-89
2023/07/29 01:38:34;;;;;;;;;;;17.30;99.90;;;;;;5011340;28;20268;-89
2023/07/29 01:41:03;;;;;;;;;;;17.30;99.90;;;;;;5010284;28;19937;-88
2023/07/29 01:43:29;;;;;;;;;;;17.30;99.90;;;;;;5009592;28;19976;-90
2023/07/29 01:45:56;;;;;;;;;;;17.30;99.90;;;;;;5008149;28;19960;-89
2023/07/29 01:48:23;;;;;;;;;;;17.30;99.90;;;;;;5007997;28;19989;-90
2023/07/29 01:50:50;;;;;;;;;;;17.30;99.90;;;;;;5007464;28;20184;-89
2023/07/29 01:53:16;;;;;;;;;;;17.20;99.90;;;;;;5007858;28;19941;-89
2023/07/29 01:55:44;;;;;;;;;;;17.20;99.90;;;;;;5007943;28;20191;-88
2023/07/29 01:58:12;;;;;;;;;;;17.20;99.90;;;;;;5007526;28;20336;-90
2023/07/29 02:00:39;;;;;;;;;;;17.20;99.90;;;;;;5007015;28;19928;-89
2023/07/29 02:03:06;;;;;;;;;;;17.20;99.90;;;;;;5007689;28;19926;-89
2023/07/29 02:05:33;;;;;;;;;;;17.20;99.90;;;;;;5008071;28;19922;-91
2023/07/29 02:08:00;;;;;;;;;;;17.20;99.90;;;;;;5008859;28;19922;-88
2023/07/29 02:10:26;;;;;;;;;;;17.20;99.90;;;;;;4992437;28;20180;-90
2023/07/29 02:12:53;;;;;;;;;;;17.20;99.90;;;;;;5009621;28;19942;-90
2023/07/29 02:15:21;;;;;;;;;;;17.10;99.90;;;;;;5009490;28;19953;-89
2023/07/29 02:17:48;;;;;;;;;;;17.20;99.90;;;;;;5001373;28;19948;-89
2023/07/29 02:20:14;;;;;;;;;;;17.20;99.90;;;;;;5008303;28;20233;-89
2023/07/29 02:22:41;;;;;;;;;;;17.20;99.90;;;;;;5006982;28;20214;-89
2023/07/29 02:25:09;;;;;;;;;;;17.20;99.90;;;;;;5008541;28;19988;-90
2023/07/29 02:27:36;;;;;;;;;;;17.20;99.90;;;;;;5007956;28;19921;-88
2023/07/29 02:30:03;;;;;;;;;;;17.20;99.90;;;;;;5007177;28;19922;-89
2023/07/29 02:32:31;;;;;;;;;;;17.20;99.90;;;;;;4997212;28;19922;-89
2023/07/29 02:34:58;;;;;;;;;;;17.20;99.90;;;;;;4987440;28;20324;-89
2023/07/29 02:37:25;;;;;;;;;;;17.20;99.90;;;;;;4987663;28;19996;-89
2023/07/29 02:39:51;;;;;;;;;;;17.20;99.90;;;;;;4986964;28;19946;-89
2023/07/29 02:42:18;;;;;;;;;;;17.20;99.90;;;;;;4987081;28;20034;-88
2023/07/29 02:44:45;;;;;;;;;;;17.20;99.90;;;;;;5000633;28;20093;-90
2023/07/29 02:47:12;;;;;;;;;;;17.20;99.90;;;;;;5006320;28;20005;-89
2023/07/29 02:49:40;;;;;;;;;;;17.20;99.90;;;;;;5005651;28;19944;-90
2023/07/29 02:52:07;;;;;;;;;;;17.10;99.90;;;;;;5006183;28;19986;-89
2023/07/29 02:54:33;;;;;;;;;;;17.10;99.90;;;;;;5006109;28;20173;-89
2023/07/29 02:57:00;;;;;;;;;;;17.10;99.90;;;;;;5006314;28;20116;-89
2023/07/29 02:59:27;;;;;;;;;;;17.10;99.90;;;;;;5005323;28;19929;-89
2023/07/29 03:01:54;;;;;;;;;;;17.10;99.90;;;;;;5004999;28;19922;-90
2023/07/29 03:04:21;;;;;;;;;;;17.00;99.90;;;;;;5005916;28;19922;-89
2023/07/29 03:06:49;;;;;;;;;;;17.00;99.90;;;;;;5005884;28;20279;-90
2023/07/29 03:09:16;;;;;;;;;;;17.00;99.90;;;;;;5005451;28;19996;-89
2023/07/29 03:11:42;;;;;;;;;;;17.00;99.90;;;;;;5005553;28;19996;-89
2023/07/29 03:14:09;;;;;;;;;;;17.00;99.90;;;;;;5005744;28;19953;-90
2023/07/29 03:16:36;;;;;;;;;;;17.00;99.90;;;;;;5005512;28;19922;-89
2023/07/29 03:19:02;;;;;;;;;;;17.00;99.90;;;;;;5005956;28;19986;-89
2023/07/29 03:21:29;;;;;;;;;;;17.00;99.90;;;;;;5005265;28;19936;-88
2023/07/29 03:23:57;;;;;;;;;;;17.10;99.90;;;;;;5005683;28;19949;-89
2023/07/29 03:26:25;;;;;;;;;;;17.00;99.90;;;;;;5005525;28;19989;-88
2023/07/29 03:28:51;;;;;;;;;;;17.00;99.90;;;;;;5005555;28;19921;-89
2023/07/29 03:31:18;;;;;;;;;;;17.10;99.90;;;;;;5004775;28;19989;-89
2023/07/29 03:33:45;;;;;;;;;;;17.10;99.90;;;;;;4985955;28;19922;-90
2023/07/29 03:36:12;;;;;;;;;;;17.10;99.90;;;;;;4985906;28;20168;-89
2023/07/29 03:38:40;;;;;;;;;;;17.10;99.90;;;;;;5000923;28;19989;-89
2023/07/29 03:41:08;;;;;;;;;;;17.10;99.90;;;;;;5004680;28;19922;-88
2023/07/29 03:43:35;;;;;;;;;;;17.10;99.90;;;;;;5004869;28;19929;-89
2023/07/29 03:46:01;;;;;;;;;;;17.10;99.90;;;;;;5005074;28;19953;-89
2023/07/29 03:48:28;;;;;;;;;;;17.10;99.90;;;;;;5005192;28;19941;-89
2023/07/29 03:50:55;;;;;;;;;;;17.10;99.90;;;;;;5004939;28;19921;-89
2023/07/29 03:53:22;;;;;;;;;;;17.10;99.90;;;;;;5005126;28;19922;-89
2023/07/29 03:55:49;;;;;;;;;;;17.10;99.90;;;;;;5004729;28;19989;-88
2023/07/29 03:58:18;;;;;;;;;;;17.10;99.90;;;;;;5004954;28;19922;-90
2023/07/29 04:00:44;;;;;;;;;;;17.10;99.90;;;;;;5004343;28;19957;-89
2023/07/29 04:03:11;;;;;;;;;;;17.10;99.90;;;;;;4993398;28;20260;-90
2023/07/29 04:05:37;;;;;;;;;;;17.20;99.90;;;;;;4997637;28;19952;-89
2023/07/29 04:08:04;;;;;;;;;;;17.10;99.90;;;;;;5002963;28;19929;-89
2023/07/29 04:10:31;;;;;;;;;;;17.20;99.90;;;;;;4993592;28;19929;-90
2023/07/29 04:12:58;;;;;;;;;;;17.20;99.90;;;;;;5004635;28;19928;-89
2023/07/29 04:15:26;;;;;;;;;;;17.10;99.90;;;;;;5004215;28;19989;-90
2023/07/29 04:17:53;;;;;;;;;;;17.10;99.90;;;;;;5004596;28;19945;-88
2023/07/29 04:20:19;;;;;;;;;;;17.20;99.90;;;;;;5004157;28;20269;-89
2023/07/29 04:22:46;;;;;;;;;;;17.20;99.90;;;;;;5004589;28;20001;-89
2023/07/29 04:25:13;;;;;;;;;;;17.20;99.90;;;;;;5005045;28;19965;-90
2023/07/29 04:27:40;;;;;;;;;;;17.20;99.90;;;;;;5005336;28;19929;-90
2023/07/29 04:30:07;;;;;;;;;;;17.20;99.90;;;;;;5005332;28;19922;-89
2023/07/29 04:32:35;;;;;;;;;;;17.20;99.90;;;;;;4995567;28;19981;-89
2023/07/29 04:35:02;;;;;;;;;;;17.20;99.90;;;;;;4985897;28;20204;-89
2023/07/29 04:37:29;;;;;;;;;;;17.30;99.90;;;;;;4995977;28;19985;-89
2023/07/29 04:39:55;;;;;;;;;;;17.30;99.90;;;;;;5006199;28;19998;-88
2023/07/29 04:42:22;;;;;;;;;;;17.30;99.90;;;;;;5006611;28;20271;-89
2023/07/29 04:44:49;;;;;;;;;;;17.40;99.90;;;;;;5007107;28;19964;-89
2023/07/29 04:47:15;;;;;;;;;;;17.40;99.90;;;;;;5006828;28;19949;-90
2023/07/29 04:49:43;;;;;;;;;;;17.50;99.90;;;;;;5006718;28;19921;-89
2023/07/29 04:52:10;;;;;;;;;;;17.50;99.90;;;;;;5005961;28;19945;-89
2023/07/29 04:54:37;;;;;;;;;;;17.50;99.90;;;;;;5005461;28;20149;-89
2023/07/29 04:57:04;;;;;;;;;;;17.50;99.90;;;;;;5005683;28;19921;-89
2023/07/29 04:59:30;;;;;;;;;;;17.60;99.90;;;;;;5006235;28;19921;-90
2023/07/29 05:01:57;;;;;;;;;;;17.60;99.90;;;;;;5005220;28;19925;-89
2023/07/29 05:04:24;;;;;;;;;;;17.60;99.90;;;;;;5009704;28;19922;-90
2023/07/29 05:06:52;;;;;;;;;;;17.60;99.90;;;;;;5007299;28;19942;-89
2023/07/29 05:09:19;;;;;;;;;;;17.60;99.90;;;;;;5007312;28;19921;-88
2023/07/29 05:11:46;;;;;;;;;;;17.60;99.90;;;;;;5006539;28;20094;-90
2023/07/29 05:14:14;;;;;;;;;;;17.60;99.90;;;;;;5004521;28;19928;-88
2023/07/29 05:16:41;;;;;;;;;;;17.60;99.90;;;;;;5003777;28;20270;-88
2023/07/29 05:19:08;;;;;;;;;;;17.60;99.90;;;;;;5003531;28;19921;-88
2023/07/29 05:21:35;;;;;;;;;;;17.60;99.90;;;;;;5009680;28;19930;-87
2023/07/29 05:24:03;;;;;;;;;;;17.60;99.90;;;;;;5001970;28;19969;-86
2023/07/29 05:26:29;;;;;;;;;;;17.60;99.90;;;;;;4995696;28;19952;-88
2023/07/29 05:28:56;;;;;;;;;;;17.60;99.90;;;;;;4989870;28;19989;-87
2023/07/29 05:31:23;;;;;;;;;;;17.60;99.90;;;;;;4989843;28;19993;-88
2023/07/29 05:33:49;;;;;;;;;;;17.60;99.90;;;;;;5009143;28;19952;-88
2023/07/29 05:36:16;;;;;;;;;;;17.60;99.90;;;;;;5008573;28;19929;-87
2023/07/29 05:38:43;;;;;;;;;;;17.60;99.90;;;;;;5002878;28;19990;-89
2023/07/29 05:41:13;;;;;;;;;;;17.70;99.90;;;;;;4986195;28;19922;-87
2023/07/29 05:43:40;;;;;;;;;;;17.70;99.90;;;;;;4989304;28;19957;-87
2023/07/29 05:46:06;;;;;;;;;;;17.70;99.90;;;;;;4988779;28;19922;-88
2023/07/29 05:48:33;;;;;;;;;;;17.70;99.90;;;;;;5006101;28;19952;-89
2023/07/29 05:51:00;;;;;;;;;;;17.70;99.90;;;;;;5004180;28;19921;-88
2023/07/29 05:53:27;;;;;;;;;;;17.70;99.90;;;;;;5010132;28;19961;-89
2023/07/29 05:58:58;;;;;;;;;;;17.70;99.90;;;;;;5008934;28;19960;-88
2023/07/29 06:01:25;;;;;;;;;;;17.70;99.90;;;;;;5003500;28;19925;-88
2023/07/29 06:03:51;;;;;;;;;;;17.70;99.90;;;;;;5002442;28;20263;-89
2023/07/29 06:06:18;;;;;;;;;;;17.70;99.90;;;;;;5010885;28;19921;-89
2023/07/29 06:08:45;;;;;;;;;;;17.60;99.90;;;;;;5000411;28;19990;-89
2023/07/29 06:11:12;;;;;;;;;;;17.70;99.90;;;;;;4999521;28;19922;-89
2023/07/29 06:13:38;;;;;;;;;;;17.60;99.90;;;;;;5021936;28;19921;-89
2023/07/29 06:16:06;;;;;;;;;;;17.60;99.90;;;;;;5006497;28;19922;-88
2023/07/29 06:18:33;;;;;;;;;;;17.60;99.90;;;;;;5021326;28;19922;-87
2023/07/29 06:21:00;;;;;;;;;;;17.60;99.90;;;;;;5012334;28;20234;-88
2023/07/29 06:23:27;;;;;;;;;;;17.50;99.90;;;;;;5013977;28;19956;-90
2023/07/29 06:25:54;;;;;;;;;;;17.50;99.90;;;;;;5028565;28;19922;-88
2023/07/29 06:28:20;;;;;;;;;;;17.50;99.90;;;;;;5012387;28;19945;-89
2023/07/29 06:30:47;;;;;;;;;;;17.50;99.90;;;;;;5008501;28;19946;-89
2023/07/29 06:33:15;;;;;;;;;;;17.40;99.90;;;;;;4994132;28;19941;-88
2023/07/29 06:35:42;;;;;;;;;;;17.40;99.90;;;;;;4988485;28;20213;-88
2023/07/29 06:38:09;;;;;;;;;;;17.40;99.90;;;;;;5003663;28;20217;-88
2023/07/29 06:40:35;;;;;;;;;;;17.40;99.90;;;;;;5007397;28;19949;-88
2023/07/29 06:43:13;;;;;;;;;;;17.40;99.90;;;;;;5006195;28;20232;-88
2023/07/29 06:45:40;;;;;;;;;;;17.50;99.90;;;;;;5007594;28;19929;-88
2023/07/29 06:48:07;;;;;;;;;;;17.50;99.90;;;;;;5001679;28;19985;-87
2023/07/29 06:50:35;;;;;;;;;;;17.50;99.90;;;;;;5006432;28;20208;-87
2023/07/29 06:53:01;;;;;;;;;;;17.50;99.90;;;;;;5007094;28;19989;-88
2023/07/29 06:55:28;;;;;;;;;;;17.60;99.90;;;;;;4990263;28;19956;-88
2023/07/29 06:57:55;;;;;;;;;;;17.60;99.90;;;;;;4987892;28;19964;-88
2023/07/29 07:00:21;;;;;;;;;;;17.60;99.90;;;;;;5003365;28;20244;-89
2023/07/29 07:02:48;;;;;;;;;;;17.70;99.90;;;;;;5006896;28;20180;-88
2023/07/29 07:05:15;;;;;;;;;;;17.70;99.90;;;;;;5006702;28;19945;-87
2023/07/29 07:07:43;;;;;;;;;;;17.80;99.90;;;;;;5006914;28;19922;-88
2023/07/29 07:10:10;;;;;;;;;;;17.80;99.90;;;;;;4991984;28;19922;-87
2023/07/29 07:12:37;;;;;;;;;;;17.90;99.90;;;;;;5005533;28;19922;-88
2023/07/29 07:15:04;;;;;;;;;;;17.90;99.90;;;;;;5007250;28;19922;-88
2023/07/29 07:17:31;;;;;;;;;;;18.00;99.90;;;;;;5003905;28;19922;-88
2023/07/29 07:19:58;;;;;;;;;;;18.00;99.90;;;;;;5004513;28;20255;-86
2023/07/29 07:22:25;;;;;;;;;;;18.10;99.90;;;;;;4989475;28;19954;-87
2023/07/29 07:24:53;;;;;;;;;;;18.20;99.90;;;;;;5004998;28;19989;-87
2023/07/29 07:27:20;;;;;;;;;;;18.30;99.90;;;;;;4999675;28;19953;-88
2023/07/29 07:29:46;;;;;;;;;;;18.30;99.90;;;;;;5001456;28;20005;-88
2023/07/29 07:32:13;;;;;;;;;;;18.30;99.90;;;;;;5010314;28;19922;-86
2023/07/29 07:34:40;;;;;;;;;;;18.40;99.90;;;;;;5008943;28;20213;-87
2023/07/29 07:37:07;;;;;;;;;;;18.40;99.90;;;;;;5008843;28;20101;-88
2023/07/29 07:39:33;;;;;;;;;;;18.40;99.90;;;;;;5010821;28;19960;-90
2023/07/29 07:42:01;;;;;;;;;;;18.40;99.90;;;;;;5006848;28;19989;-89
2023/07/29 07:44:28;;;;;;;;;;;18.40;99.90;;;;;;5004367;28;20224;-89
2023/07/29 07:46:55;;;;;;;;;;;18.40;99.90;;;;;;5010218;28;19949;-90
2023/07/29 07:49:21;;;;;;;;;;;18.40;99.90;;;;;;5008986;28;19922;-88
2023/07/29 07:51:48;;;;;;;;;;;18.40;99.90;;;;;;5009968;28;19990;-89
2023/07/29 07:54:15;;;;;;;;;;;18.40;99.90;;;;;;5006968;28;19945;-86
2023/07/29 07:56:41;;;;;;;;;;;18.40;99.90;;;;;;5009777;28;19960;-89
2023/07/29 07:59:09;;;;;;;;;;;18.50;99.90;;;;;;5008799;28;19957;-86
2023/07/29 08:01:36;;;;;;;;;;;18.50;99.90;;;;;;5007079;28;19961;-87
2023/07/29 08:04:03;;;;;;;;;;;18.50;99.90;;;;;;5007680;28;19945;-89
2023/07/29 08:06:31;;;;;;;;;;;18.50;99.90;;;;;;4998945;28;19953;-88
2023/07/29 08:08:57;;;;;;;;;;;18.50;99.90;;;;;;5007607;28;19922;-89
2023/07/29 08:11:24;;;;;;;;;;;18.50;99.90;;;;;;5008622;28;19922;-90
2023/07/29 08:13:51;;;;;;;;;;;18.50;99.90;;;;;;4996572;28;19986;-89
2023/07/29 08:16:19;;;;;;;;;;;18.50;99.90;;;;;;5013217;28;19933;-90
2023/07/29 08:18:47;;;;;;;;;;;18.50;99.90;;;;;;4994080;28;19922;-89
2023/07/29 08:21:13;;;;;;;;;;;18.50;99.90;;;;;;4992689;28;19934;-89
2023/07/29 08:23:40;;;;;;;;;;;18.50;99.90;;;;;;4988278;28;19989;-90
2023/07/29 08:26:07;;;;;;;;;;;18.50;99.90;;;;;;4997037;28;19930;-89
2023/07/29 08:31:16;;;;;;;;;;;18.60;99.90;;;;;;5003947;28;19918;-91
2023/07/29 08:33:44;;;;;;;;;;;18.50;99.90;;;;;;5008732;28;19944;-90
2023/07/29 08:36:11;;;;;;;;;;;18.50;99.90;;;;;;5004340;28;19985;-90
2023/07/29 08:38:37;;;;;;;;;;;18.50;99.90;;;;;;5009319;28;19922;-89
2023/07/29 08:41:11;;;;;;;;;;;18.50;99.90;;;;;;5004337;28;19956;-91
2023/07/29 08:43:39;;;;;;;;;;;18.50;99.90;;;;;;5003012;28;19922;-88
2023/07/29 08:46:07;;;;;;;;;;;18.50;99.90;;;;;;4994320;28;20098;-88
2023/07/29 08:48:37;;;;;;;;;;;18.60;99.90;;;;;;5007707;28;20275;-91
2023/07/29 08:51:06;;;;;;;;;;;18.60;99.90;;;;;;5006851;28;19985;-89
2023/07/29 08:53:33;;;;;;;;;;;18.60;99.90;;;;;;5006558;28;19922;-89
2023/07/29 08:56:01;;;;;;;;;;;18.70;99.90;;;;;;5008994;28;20184;-90
2023/07/29 08:58:28;;;;;;;;;;;18.60;99.90;;;;;;4992574;28;19945;-89
2023/07/29 09:00:55;;;;;;;;;;;18.70;99.90;;;;;;4992477;28;19942;-88
2023/07/29 09:03:22;;;;;;;;;;;18.70;99.90;;;;;;4996756;28;19957;-89
2023/07/29 09:05:49;;;;;;;;;;;18.70;99.90;;;;;;5006359;28;20250;-88
2023/07/29 09:08:17;;;;;;;;;;;18.60;99.90;;;;;;5009662;28;19929;-88
2023/07/29 09:10:43;;;;;;;;;;;18.60;99.90;;;;;;5006126;28;19949;-88
2023/07/29 09:13:40;;;;;;;;;;;18.60;99.90;;;;;;5005907;28;19989;-88
2023/07/29 09:16:07;;;;;;;;;;;18.70;99.90;;;;;;4990015;28;19948;-88
2023/07/29 09:18:34;;;;;;;;;;;18.80;99.90;;;;;;4994944;28;19953;-89
2023/07/29 09:21:01;;;;;;;;;;;18.70;99.90;;;;;;5007609;28;19941;-89
2023/07/29 09:23:29;;;;;;;;;;;18.90;99.90;;;;;;5006620;28;19977;-88
2023/07/29 09:26:01;;;;;;;;;;;18.90;99.90;;;;;;5008236;28;19932;-89
2023/07/29 09:28:32;;;;;;;;;;;18.90;99.90;;;;;;5012337;28;19974;-89
2023/07/29 09:31:00;;;;;;;;;;;18.90;99.90;;;;;;5015246;28;19960;-88
2023/07/29 09:33:26;;;;;;;;;;;19.00;99.90;;;;;;4998574;28;19934;-87
2023/07/29 09:35:53;;;;;;;;;;;19.10;99.90;;;;;;5003625;28;19922;-89
2023/07/29 09:38:26;;;;;;;;;;;19.10;99.90;;;;;;5012026;28;19941;-89
2023/07/29 09:40:55;;;;;;;;;;;19.20;99.90;;;;;;5015260;28;19982;-89
2023/07/29 09:43:25;;;;;;;;;;;19.40;99.90;;;;;;5015851;28;19968;-89
2023/07/29 09:45:53;;;;;;;;;;;19.40;99.90;;;;;;5017577;28;20280;-89
2023/07/29 09:48:23;;;;;;;;;;;19.50;99.90;;;;;;5018130;28;19930;-91
2023/07/29 09:50:49;;;;;;;;;;;19.60;99.90;;;;;;5016881;28;19997;-91
2023/07/29 09:53:16;;;;;;;;;;;19.60;99.90;;;;;;5017872;28;19981;-90
2023/07/29 09:55:47;;;;;;;;;;;19.70;99.90;;;;;;5000374;28;20236;-90
2023/07/29 09:58:15;;;;;;;;;;;19.70;99.90;;;;;;5008602;28;19952;-88
2023/07/29 10:00:42;;;;;;;;;;;19.70;99.90;;;;;;5014634;28;19996;-89
2023/07/29 10:03:09;;;;;;;;;;;19.60;99.90;;;;;;5006427;28;19926;-89
2023/07/29 10:05:36;;;;;;;;;;;19.60;99.90;;;;;;5006148;28;19926;-89
2023/07/29 10:08:03;;;;;;;;;;;19.60;99.90;;;;;;5005666;28;19949;-88
2023/07/29 10:10:30;;;;;;;;;;;19.60;99.90;;;;;;4991033;28;19922;-89
2023/07/29 10:13:02;;;;;;;;;;;19.60;99.90;;;;;;4994415;28;19989;-87
2023/07/29 10:15:32;;;;;;;;;;;19.70;99.90;;;;;;4997730;28;19933;-88
2023/07/29 10:17:59;;;;;;;;;;;19.70;99.90;;;;;;4988442;28;19937;-89
2023/07/29 10:20:26;;;;;;;;;;;19.70;99.90;;;;;;4989831;28;19993;-90
2023/07/29 10:22:56;;;;;;;;;;;19.80;99.90;;;;;;4987978;28;19994;-89
2023/07/29 10:25:23;;;;;;;;;;;19.90;99.90;;;;;;5007177;28;19984;-90
2023/07/29 10:27:53;;;;;;;;;;;20.00;99.90;;;;;;5007165;28;19993;-90
2023/07/29 10:30:20;;;;;;;;;;;20.20;99.90;;;;;;5008611;28;19952;-89
2023/07/29 10:32:49;;;;;;;;;;;20.40;99.90;;;;;;4995984;28;19949;-90
2023/07/29 10:35:16;;;;;;;;;;;20.50;99.90;;;;;;4988635;28;20128;-90
2023/07/29 10:37:45;;;;;;;;;;;20.60;99.90;;;;;;4989771;28;19989;-89
2023/07/29 10:40:12;;;;;;;;;;;20.80;99.90;;;;;;4995007;28;20260;-88
2023/07/29 10:42:39;;;;;;;;;;;20.90;99.90;;;;;;5012796;28;20185;-90
2023/07/29 10:45:18;;;;;;;;;;;20.90;99.90;;;;;;5010797;28;19988;-92
2023/07/29 10:47:45;;;;;;;;;;;21.10;99.90;;;;;;5012001;28;19952;-89
2023/07/29 10:50:19;;;;;;;;;;;21.20;99.90;;;;;;5011406;28;19948;-89
2023/07/29 10:52:49;;;;;;;;;;;21.30;99.90;;;;;;5016182;28;19922;-89
2023/07/29 10:55:26;;;;;;;;;;;21.40;99.90;;;;;;5003222;28;19949;-90
2023/07/29 10:57:53;;;;;;;;;;;21.60;99.90;;;;;;5008587;28;19976;-90
2023/07/29 11:00:20;;;;;;;;;;;21.70;99.90;;;;;;5007258;28;19949;-91
2023/07/29 11:02:59;;;;;;;;;;;21.70;99.90;;;;;;5008922;28;19922;-90
2023/07/29 11:05:28;;;;;;;;;;;21.60;99.90;;;;;;5009610;28;20204;-89
2023/07/29 11:07:54;;;;;;;;;;;21.60;99.90;;;;;;5009487;28;19937;-90
2023/07/29 11:10:21;;;;;;;;;;;21.50;99.90;;;;;;5007764;28;19990;-90
2023/07/29 11:12:51;;;;;;;;;;;21.40;99.90;;;;;;5005116;28;19956;-89
2023/07/29 11:15:28;;;;;;;;;;;21.30;99.90;;;;;;5009759;28;19957;-89
2023/07/29 11:17:55;;;;;;;;;;;21.30;99.90;;;;;;5007712;28;19937;-90
2023/07/29 11:20:24;;;;;;;;;;;21.20;99.90;;;;;;5010847;28;19992;-90
2023/07/29 11:22:53;;;;;;;;;;;21.10;99.90;;;;;;5005502;28;19922;-90
2023/07/29 11:25:20;;;;;;;;;;;21.10;99.90;;;;;;5004430;28;19937;-91
2023/07/29 11:27:47;;;;;;;;;;;21.10;99.90;;;;;;5007365;28;19960;-91
2023/07/29 11:30:14;;;;;;;;;;;21.10;99.90;;;;;;5003835;28;20005;-90
2023/07/29 11:32:42;;;;;;;;;;;21.10;99.90;;;;;;4993862;28;19922;-90
2023/07/29 11:35:09;;;;;;;;;;;21.00;99.90;;;;;;5004102;28;19921;-90
2023/07/29 11:37:36;;;;;;;;;;;21.00;99.90;;;;;;5004797;28;19925;-90
2023/07/29 11:40:08;;;;;;;;;;;21.00;99.90;;;;;;5003202;28;19928;-91
2023/07/29 11:42:35;;;;;;;;;;;21.10;99.90;;;;;;5003642;28;19949;-89
2023/07/29 11:45:01;;;;;;;;;;;21.10;99.90;;;;;;5001816;28;20254;-90
2023/07/29 11:47:28;;;;;;;;;;;21.30;99.90;;;;;;5003369;28;19989;-91
2023/07/29 11:49:58;;;;;;;;;;;21.30;99.90;;;;;;5003209;28;19934;-91
2023/07/29 11:52:25;;;;;;;;;;;21.40;99.90;;;;;;4997828;28;19957;-90
2023/07/29 11:54:54;;;;;;;;;;;21.60;99.90;;;;;;5011304;28;20205;-91
2023/07/29 11:57:22;;;;;;;;;;;21.90;99.90;;;;;;5002146;28;19961;-89
2023/07/29 11:59:48;;;;;;;;;;;22.10;99.90;;;;;;5003288;28;20162;-89
2023/07/29 12:02:16;;;;;;;;;;;22.30;99.90;;;;;;5001500;28;19960;-89
2023/07/29 12:04:44;;;;;;;;;;;22.50;99.90;;;;;;5002214;28;20552;-89
2023/07/29 12:07:11;;;;;;;;;;;22.70;99.90;;;;;;5006215;28;19922;-88
2023/07/29 12:09:38;;;;;;;;;;;22.90;99.90;;;;;;5005249;28;19945;-90
2023/07/29 12:12:05;;;;;;;;;;;23.10;99.90;;;;;;5002499;28;19921;-90
2023/07/29 12:14:34;;;;;;;;;;;23.20;99.90;;;;;;5004588;28;19975;-90
2023/07/29 12:17:00;;;;;;;;;;;23.40;99.90;;;;;;5005893;28;19986;-89
2023/07/29 12:19:32;;;;;;;;;;;23.60;99.90;;;;;;4993073;28;19989;-90
2023/07/29 12:21:58;;;;;;;;;;;23.70;99.90;;;;;;4986654;28;19964;-90
2023/07/29 12:24:25;;;;;;;;;;;23.80;99.90;;;;;;5005725;28;20129;-89
2023/07/29 12:26:52;;;;;;;;;;;23.80;99.90;;;;;;5008623;28;19949;-89
2023/07/29 12:29:19;;;;;;;;;;;24.00;99.90;;;;;;5005474;28;19922;-89
2023/07/29 12:31:47;;;;;;;;;;;24.20;99.90;;;;;;5002232;28;19932;-89
2023/07/29 12:34:18;;;;;;;;;;;24.40;99.90;;;;;;4986422;28;19993;-91
2023/07/29 12:36:45;;;;;;;;;;;24.70;99.90;;;;;;5004661;28;19956;-91
2023/07/29 12:39:18;;;;;;;;;;;24.90;99.90;;;;;;5012174;28;19922;-90
2023/07/29 12:41:45;;;;;;;;;;;25.20;99.90;;;;;;5007262;28;19922;-91
2023/07/29 12:44:12;;;;;;;;;;;25.10;99.90;;;;;;5000817;28;20015;-91
2023/07/29 12:46:39;;;;;;;;;;;25.10;99.90;;;;;;5007480;28;19941;-90
2023/07/29 12:49:07;;;;;;;;;;;25.00;99.90;;;;;;5004944;28;19957;-89
2023/07/29 12:51:34;;;;;;;;;;;25.00;99.90;;;;;;5002907;28;20241;-88
2023/07/29 12:54:01;;;;;;;;;;;24.80;99.90;;;;;;5003913;28;19929;-89
2023/07/29 12:56:27;;;;;;;;;;;24.50;99.90;;;;;;5003936;28;19926;-90
2023/07/29 12:58:54;;;;;;;;;;;24.50;99.90;;;;;;5004053;28;19921;-89
2023/07/29 13:01:21;;;;;;;;;;;24.40;99.90;;;;;;5003119;28;20182;-90
2023/07/29 13:03:48;;;;;;;;;;;24.30;99.90;;;;;;5005383;28;20259;-88
2023/07/29 13:06:16;;;;;;;;;;;24.20;99.90;;;;;;5011366;28;19997;-89
2023/07/29 13:08:43;;;;;;;;;;;24.10;99.90;;;;;;5003994;28;19929;-89
2023/07/29 13:11:10;;;;;;;;;;;24.10;99.90;;;;;;5003579;28;19921;-89
2023/07/29 13:13:36;;;;;;;;;;;24.30;99.90;;;;;;5003912;28;19941;-89
2023/07/29 13:16:03;;;;;;;;;;;24.60;99.90;;;;;;4992343;28;19952;-89
2023/07/29 13:18:30;;;;;;;;;;;24.80;99.90;;;;;;5010094;28;19932;-91
2023/07/29 13:20:57;;;;;;;;;;;24.90;99.90;;;;;;5007166;28;19953;-91
2023/07/29 13:23:25;;;;;;;;;;;24.90;99.90;;;;;;5007246;28;19956;-90
2023/07/29 13:25:52;;;;;;;;;;;24.80;99.90;;;;;;5008437;28;19945;-90
2023/07/29 13:28:19;;;;;;;;;;;24.70;99.90;;;;;;5004587;28;19956;-90
2023/07/29 13:30:46;;;;;;;;;;;24.60;99.90;;;;;;5011015;28;19918;-90
2023/07/29 13:33:12;;;;;;;;;;;24.60;99.90;;;;;;4991028;28;19922;-90
2023/07/29 13:35:39;;;;;;;;;;;24.60;99.90;;;;;;4986568;28;20013;-90
2023/07/29 13:38:06;;;;;;;;;;;24.60;99.90;;;;;;5000741;28;19941;-90
2023/07/29 13:40:34;;;;;;;;;;;24.70;99.90;;;;;;5004408;28;19928;-90
2023/07/29 13:43:04;;;;;;;;;;;24.90;99.90;;;;;;5005221;28;19922;-89
2023/07/29 13:45:31;;;;;;;;;;;25.00;99.90;;;;;;5004829;28;19960;-89
2023/07/29 13:47:58;;;;;;;;;;;25.20;99.90;;;;;;5007391;28;20004;-90
2023/07/29 13:50:24;;;;;;;;;;;25.30;99.90;;;;;;5006122;28;19922;-90
2023/07/29 13:52:51;;;;;;;;;;;25.30;99.90;;;;;;5003374;28;20259;-90
2023/07/29 13:55:18;;;;;;;;;;;25.30;99.90;;;;;;5013977;28;19921;-92
2023/07/29 13:57:46;;;;;;;;;;;25.40;99.90;;;;;;5018564;28;19928;-90
2023/07/29 14:00:13;;;;;;;;;;;25.40;99.90;;;;;;5010357;28;19922;-93
2023/07/29 14:02:40;;;;;;;;;;;25.60;99.90;;;;;;5009041;28;20228;-91
2023/07/29 14:05:07;;;;;;;;;;;25.60;99.90;;;;;;5011230;28;19952;-89
2023/07/29 14:07:34;;;;;;;;;;;25.60;99.90;;;;;;5012236;28;19922;-90
2023/07/29 14:10:01;;;;;;;;;;;25.70;99.90;;;;;;5011448;28;19914;-90
2023/07/29 14:12:28;;;;;;;;;;;25.60;99.90;;;;;;5015454;28;19922;-90
2023/07/29 14:14:56;;;;;;;;;;;25.40;99.90;;;;;;5012713;28;19922;-92
2023/07/29 14:17:23;;;;;;;;;;;25.30;99.90;;;;;;5013546;28;19921;-93
2023/07/29 14:19:49;;;;;;;;;;;25.20;99.90;;;;;;5014719;28;19922;-91
2023/07/29 14:22:16;;;;;;;;;;;24.90;99.90;;;;;;5019404;28;19946;-92
2023/07/29 14:24:43;;;;;;;;;;;24.80;99.90;;;;;;5019590;28;19921;-94